Search for airport 
image banner adimage banner ad
image banner ad

EVPA - Ikshkile

Located in Ikshkile, Latvia

ICAO - EVPA, IATA -

Data provided by Airmate  

General information

Coordinates: N56°48'54" E24°31'40"
Elevation is 65 feet MSL.
Magnetic variation is 5° East
View others Airports in Ogre District

Operational data

Open for public use
Current time UTC:
Current local time:
Weather at : EVRA - Riga ( 36 km )
METAR: EVRA 261220Z 10009KT 070V160 CAVOK 24/16 Q1004 NOSIG
TAF: TAF EVRA 261104Z 2612/2712 09010KT CAVOK TEMPO 2612/2616 10015G28KT
View NOTAMs / SUP AIP / TFR affecting this airport [VIEW]
Communications frequencies: [VIEW]

Runways:

RWY identifierQFULength (ft)Width (ft)SurfaceLDA (ft)
0885°196966GRASS
26265°196966GRASS

Airport contact information

Address: Ikshkile Latvia

Satellite view of EVPA